Time;durP1;ratioP1;P1;durP2;ratioP2;P2;SDS_P1;SDS_P2;PMS_P1;PMS_P2;Temp;Humidity;BMP_temperature;BMP_pressure;BME280_temperature;BME280_humidity;BME280_pressure;Samples;Min_cycle;Max_cycle;Signal;HPM_P1;HPM_P2
2023/08/04 00:00:36;;;;;;;3.37;1.80;;;19.70;99.90;;;;;;5075015;28;20479;-82
2023/08/04 00:03:03;;;;;;;1.60;1.50;;;19.70;99.90;;;;;;5076684;28;20486;-81
2023/08/04 00:05:30;;;;;;;2.10;1.93;;;19.70;99.90;;;;;;5085637;28;20593;-81
2023/08/04 00:07:57;;;;;;;2.10;2.00;;;19.70;99.90;;;;;;5076387;28;20481;-81
2023/08/04 00:10:25;;;;;;;2.50;1.90;;;19.70;99.90;;;;;;5072779;28;21012;-81
2023/08/04 00:12:52;;;;;;;2.70;2.50;;;19.70;99.90;;;;;;5074986;28;20533;-81
2023/08/04 00:15:22;;;;;;;1.60;1.40;;;19.70;99.90;;;;;;5075871;28;20489;-81
2023/08/04 00:17:50;;;;;;;1.87;1.77;;;19.70;99.90;;;;;;5075219;28;20462;-81
2023/08/04 00:20:17;;;;;;;1.70;1.60;;;19.70;99.90;;;;;;5075359;28;20532;-82
2023/08/04 00:22:44;;;;;;;4.03;2.10;;;19.70;99.90;;;;;;5075002;28;20470;-82
2023/08/04 00:25:12;;;;;;;468.07;404.97;;;19.70;99.90;;;;;;5076380;28;20527;-82
2023/08/04 00:27:39;;;;;;;36.17;32.70;;;19.70;99.90;;;;;;5075225;28;20494;-82
2023/08/04 00:30:09;;;;;;;19.10;17.20;;;19.70;99.90;;;;;;5077093;28;20466;-81
2023/08/04 00:32:55;;;;;;;13.93;12.53;;;19.70;99.90;;;;;;5075845;28;20494;-81
2023/08/04 00:35:22;;;;;;;4.10;3.80;;;19.80;99.90;;;;;;5076680;28;20466;-81
2023/08/04 00:37:49;;;;;;;2.90;2.60;;;19.70;99.90;;;;;;5076522;28;20554;-82
2023/08/04 00:40:16;;;;;;;2.70;2.50;;;19.70;99.90;;;;;;5068158;28;20462;-81
2023/08/04 00:42:47;;;;;;;2.27;2.17;;;19.70;99.90;;;;;;5075980;28;20527;-80
2023/08/04 00:45:15;;;;;;;2.63;2.40;;;19.70;99.90;;;;;;5076010;28;20466;-81
2023/08/04 00:47:42;;;;;;;4.00;3.70;;;19.80;99.90;;;;;;5075091;28;20504;-81
2023/08/04 00:50:11;;;;;;;2.10;1.97;;;19.70;99.90;;;;;;5075816;28;20473;-82
2023/08/04 00:52:44;;;;;;;6.17;5.27;;;19.70;99.90;;;;;;5074126;28;20470;-82
2023/08/04 00:55:14;;;;;;;4.30;3.90;;;19.80;99.90;;;;;;5075931;28;20470;-82
2023/08/04 00:57:41;;;;;;;5.30;4.57;;;19.80;99.90;;;;;;5075056;28;20528;-81
2023/08/04 01:00:09;;;;;;;3.80;2.80;;;19.80;99.90;;;;;;5075759;28;20470;-81
2023/08/04 01:02:37;;;;;;;3.13;2.83;;;19.70;99.90;;;;;;5075676;28;20466;-81
2023/08/04 01:05:11;;;;;;;3.53;3.23;;;19.80;99.90;;;;;;5069516;28;20498;-81
2023/08/04 01:07:56;;;;;;;3.40;3.17;;;19.80;99.90;;;;;;5067143;28;20466;-81
2023/08/04 01:10:28;;;;;;;8.20;6.50;;;19.80;99.90;;;;;;5073998;28;20490;-81
2023/08/04 01:13:04;;;;;;;6.30;4.37;;;19.80;99.90;;;;;;5075136;28;20968;-80
2023/08/04 01:15:36;;;;;;;3.40;3.20;;;19.90;99.90;;;;;;5084521;22;20470;-81
2023/08/04 01:18:03;;;;;;;5.63;2.70;;;19.80;99.90;;;;;;5054595;28;20468;-81
2023/08/04 01:20:32;;;;;;;5.03;2.83;;;19.80;99.90;;;;;;5055123;28;20542;-81
2023/08/04 01:23:01;;;;;;;3.30;3.00;;;19.80;99.90;;;;;;5054460;28;20566;-81
2023/08/04 01:25:30;;;;;;;3.40;3.10;;;19.80;99.90;;;;;;5044501;28;20973;-82
2023/08/04 01:28:00;;;;;;;307.83;266.07;;;19.80;99.90;;;;;;5054234;28;20501;-81
2023/08/04 01:30:29;;;;;;;77.63;69.30;;;19.80;99.90;;;;;;5044909;28;20544;-80
2023/08/04 01:32:56;;;;;;;3.73;3.43;;;19.80;99.90;;;;;;5053425;28;20474;-82
2023/08/04 01:35:23;;;;;;;3.33;3.03;;;19.80;99.90;;;;;;5055172;28;20995;-82
2023/08/04 01:37:54;;;;;;;2.70;2.50;;;19.80;99.90;;;;;;5054630;28;20471;-82
2023/08/04 01:44:08;;;;;;;3.03;2.60;;;19.80;99.90;;;;;;4963762;28;21054;-82
2023/08/04 01:46:36;;;;;;;3.73;3.43;;;19.70;99.90;;;;;;4968598;28;20811;-81
2023/08/04 01:49:03;;;;;;;2.93;2.30;;;19.80;99.90;;;;;;5000236;28;20483;-82
2023/08/04 01:51:30;;;;;;;7.47;5.83;;;19.70;99.90;;;;;;5023198;28;20560;-82
2023/08/04 01:53:57;;;;;;;3.57;3.27;;;19.70;99.90;;;;;;5023965;28;20473;-82
2023/08/04 01:56:25;;;;;;;3.77;3.47;;;19.70;99.90;;;;;;5042850;28;20468;-82
2023/08/04 01:58:52;;;;;;;6.27;3.80;;;19.70;99.90;;;;;;5053492;28;20565;-82
2023/08/04 02:01:22;;;;;;;4.80;3.03;;;19.70;99.90;;;;;;5054502;28;20486;-82
2023/08/04 02:03:51;;;;;;;2.80;2.43;;;19.70;99.90;;;;;;5053543;28;20475;-82
2023/08/04 02:06:21;;;;;;;3.20;2.90;;;19.70;99.90;;;;;;5040710;28;20472;-81
2023/08/04 02:08:48;;;;;;;5.70;3.90;;;19.70;99.90;;;;;;5042743;28;20479;-82
2023/08/04 02:11:21;;;;;;;4.03;3.67;;;19.70;99.90;;;;;;5053938;28;20464;-82
2023/08/04 02:13:49;;;;;;;3.00;2.80;;;19.70;99.90;;;;;;5053634;28;20471;-82
2023/08/04 02:16:16;;;;;;;7.67;3.30;;;19.70;99.90;;;;;;5043291;28;20451;-82
2023/08/04 02:18:43;;;;;;;6.80;4.30;;;19.70;99.90;;;;;;5054123;28;20976;-81
2023/08/04 02:21:12;;;;;;;4.40;3.30;;;19.70;99.90;;;;;;5053352;28;20470;-81
2023/08/04 02:23:43;;;;;;;4.37;3.93;;;19.70;99.90;;;;;;5053716;28;20475;-81
2023/08/04 02:26:13;;;;;;;5.73;3.60;;;19.70;99.90;;;;;;5053688;28;20477;-82
2023/08/04 02:28:40;;;;;;;4.43;2.97;;;19.70;99.90;;;;;;5053745;28;20529;-81
2023/08/04 02:31:09;;;;;;;6.60;4.33;;;19.70;99.90;;;;;;5052901;28;20532;-81
2023/08/04 02:33:36;;;;;;;5.13;3.80;;;19.70;99.90;;;;;;5053323;28;20968;-81
2023/08/04 02:36:07;;;;;;;3.90;3.43;;;19.70;99.90;;;;;;5053135;28;20536;-81
2023/08/04 02:38:34;;;;;;;8.30;3.70;;;19.70;99.90;;;;;;5053713;28;20471;-81
2023/08/04 02:41:05;;;;;;;8.10;3.50;;;19.70;99.90;;;;;;5053175;28;20495;-81
2023/08/04 02:43:32;;;;;;;6.20;3.67;;;19.70;99.90;;;;;;5053818;28;20555;-80
2023/08/04 02:45:59;;;;;;;4.60;4.10;;;19.70;99.90;;;;;;5052810;28;20467;-81
2023/08/04 02:48:28;;;;;;;8.20;4.87;;;19.70;99.90;;;;;;5050456;28;20495;-81
2023/08/04 02:51:01;;;;;;;6.03;3.83;;;19.80;99.90;;;;;;5032705;28;20476;-81
2023/08/04 02:53:28;;;;;;;3.73;3.53;;;19.80;99.90;;;;;;5031669;28;20517;-80
2023/08/04 02:55:55;;;;;;;76.50;64.30;;;19.80;99.90;;;;;;5033227;28;20512;-81
2023/08/04 02:58:25;;;;;;;14.97;13.50;;;19.70;99.90;;;;;;5023057;28;20547;-81
2023/08/04 03:00:59;;;;;;;7.50;6.90;;;19.70;99.90;;;;;;5032039;28;20962;-81
2023/08/04 03:03:27;;;;;;;7.53;5.53;;;19.80;99.90;;;;;;5032860;28;21134;-81
2023/08/04 03:05:57;;;;;;;5.73;4.03;;;19.80;99.90;;;;;;5032311;28;20476;-81
2023/08/04 03:08:24;;;;;;;7.37;5.10;;;19.80;99.90;;;;;;5031049;28;20464;-80
2023/08/04 03:10:52;;;;;;;7.97;5.60;;;19.80;99.90;;;;;;5031821;28;20464;-80
2023/08/04 03:13:40;;;;;;;6.63;4.20;;;19.80;99.90;;;;;;5021688;28;20474;-80
2023/08/04 03:16:21;;;;;;;7.03;4.93;;;19.80;99.90;;;;;;5031059;28;20495;-80
2023/08/04 03:18:50;;;;;;;4.60;4.20;;;19.80;99.90;;;;;;5032005;28;20476;-80
2023/08/04 03:21:25;;;;;;;4.67;3.83;;;19.80;99.90;;;;;;5032941;28;20495;-80
2023/08/04 03:23:52;;;;;;;5.10;4.00;;;19.80;99.90;;;;;;5033338;28;20550;-81
2023/08/04 03:26:27;;;;;;;7.80;7.00;;;19.80;99.90;;;;;;5033214;28;20525;-81
2023/08/04 03:28:57;;;;;;;5.10;4.60;;;19.80;99.90;;;;;;5032879;28;20467;-81
2023/08/04 03:31:26;;;;;;;7.93;6.47;;;19.80;99.90;;;;;;5029081;28;20636;-80
2023/08/04 03:34:07;;;;;;;8.50;5.70;;;19.80;99.90;;;;;;5023363;28;20869;-81
2023/08/04 03:36:41;;;;;;;6.07;5.57;;;19.80;99.90;;;;;;5028804;28;20478;-81
2023/08/04 03:39:14;;;;;;;5.50;4.70;;;19.80;99.90;;;;;;5027672;28;20559;-81
2023/08/04 03:41:49;;;;;;;4.10;3.80;;;19.80;99.90;;;;;;5036125;28;20525;-81
2023/08/04 03:44:42;;;;;;;;;;;;;;;;;;;;;
2023/08/04 03:50:06;;;;;;;7.73;6.87;;;19.70;99.90;;;;;;5036704;28;20479;-81
2023/08/04 03:52:35;;;;;;;5.80;4.80;;;19.70;99.90;;;;;;5036438;28;20506;-81
2023/08/04 03:55:04;;;;;;;6.30;4.90;;;19.70;99.90;;;;;;5037168;28;20476;-82
2023/08/04 03:57:31;;;;;;;5.90;5.40;;;19.70;99.90;;;;;;5036860;28;20479;-81
2023/08/04 04:00:03;;;;;;;4.83;4.10;;;19.60;99.90;;;;;;5036708;28;20467;-81
2023/08/04 04:02:30;;;;;;;10.93;5.90;;;19.60;99.90;;;;;;5036454;28;20468;-81
2023/08/04 04:04:58;;;;;;;6.43;5.70;;;19.60;99.90;;;;;;5036676;28;20546;-81
2023/08/04 04:07:26;;;;;;;6.77;5.13;;;19.60;99.90;;;;;;5036105;28;20472;-81
2023/08/04 04:09:56;;;;;;;8.90;4.70;;;19.70;99.90;;;;;;5036680;28;20954;-81
2023/08/04 04:12:23;;;;;;;5.90;5.27;;;19.60;99.90;;;;;;5025719;28;20593;-81
2023/08/04 04:14:53;;;;;;;8.37;7.43;;;19.60;99.90;;;;;;5036519;28;20483;-82
2023/08/04 04:17:20;;;;;;;6.00;5.40;;;19.60;99.90;;;;;;5035991;28;20552;-81
2023/08/04 04:19:47;;;;;;;9.33;6.20;;;19.60;99.90;;;;;;5036359;28;20467;-82
2023/08/04 04:22:16;;;;;;;6.80;6.20;;;19.60;99.90;;;;;;5036568;28;20602;-81
2023/08/04 04:24:44;;;;;;;8.10;5.13;;;19.60;99.90;;;;;;5036022;28;20782;-81
2023/08/04 04:27:12;;;;;;;8.43;4.83;;;19.60;99.90;;;;;;5036694;28;20496;-82
2023/08/04 04:29:39;;;;;;;8.73;5.17;;;19.60;99.90;;;;;;5036102;28;20559;-81
2023/08/04 04:32:09;;;;;;;8.13;7.00;;;19.60;99.90;;;;;;5036718;28;20468;-82
2023/08/04 04:34:36;;;;;;;9.07;6.30;;;19.60;99.90;;;;;;5036402;28;20891;-82
2023/08/04 04:37:03;;;;;;;7.10;5.70;;;19.60;99.90;;;;;;5036030;28;20499;-81
2023/08/04 04:39:32;;;;;;;6.07;5.13;;;19.60;99.90;;;;;;5035546;28;20534;-80
2023/08/04 04:42:03;;;;;;;7.03;5.50;;;19.60;99.90;;;;;;5036236;28;20492;-82
2023/08/04 04:44:30;;;;;;;5.37;4.97;;;19.60;99.90;;;;;;5033279;28;20507;-81
2023/08/04 04:46:59;;;;;;;7.07;6.37;;;19.60;99.90;;;;;;5036866;28;20463;-82
2023/08/04 04:49:27;;;;;;;6.37;5.77;;;19.60;99.90;;;;;;5034672;28;20539;-81
2023/08/04 04:51:54;;;;;;;6.03;5.33;;;19.50;99.90;;;;;;5035580;28;20535;-81
2023/08/04 04:54:27;;;;;;;6.80;6.10;;;19.60;99.90;;;;;;5035988;28;20469;-81
2023/08/04 04:56:54;;;;;;;6.23;5.50;;;19.60;99.90;;;;;;5035450;28;20764;-80
2023/08/04 04:59:27;;;;;;;8.30;5.20;;;19.60;99.90;;;;;;5035733;28;20464;-81
2023/08/04 05:01:54;;;;;;;5.50;4.90;;;19.60;99.90;;;;;;5035428;28;20475;-81
2023/08/04 05:04:21;;;;;;;6.43;4.40;;;19.70;99.90;;;;;;5035638;28;20567;-82
2023/08/04 05:06:48;;;;;;;7.53;5.70;;;19.70;99.90;;;;;;5034799;28;20932;-82
2023/08/04 05:09:18;;;;;;;10.87;6.30;;;19.70;99.90;;;;;;5035534;28;20456;-81
2023/08/04 05:11:45;;;;;;;8.60;5.80;;;19.70;99.90;;;;;;5035011;28;20479;-81
2023/08/04 05:14:21;;;;;;;5.90;5.30;;;19.70;99.90;;;;;;5035278;28;20549;-81
2023/08/04 05:16:56;;;;;;;6.90;5.10;;;19.70;99.90;;;;;;5034734;28;20475;-81
2023/08/04 05:19:23;;;;;;;6.10;5.33;;;19.70;99.90;;;;;;5035625;28;20559;-81
2023/08/04 05:21:53;;;;;;;4.93;4.43;;;19.70;99.90;;;;;;5034723;28;20510;-81
2023/08/04 05:24:21;;;;;;;9.63;5.60;;;19.70;99.90;;;;;;5035166;28;20538;-80
2023/08/04 05:26:49;;;;;;;8.03;5.20;;;19.70;99.90;;;;;;5024721;28;20478;-81
2023/08/04 05:29:16;;;;;;;7.70;4.30;;;19.70;99.90;;;;;;5034777;28;20529;-82
2023/08/04 05:31:46;;;;;;;4.73;3.50;;;19.70;99.90;;;;;;5035474;28;20496;-81
2023/08/04 05:34:14;;;;;;;7.50;5.40;;;19.70;99.90;;;;;;5034848;28;20460;-81
2023/08/04 05:36:41;;;;;;;5.00;3.60;;;19.70;99.90;;;;;;5035672;28;20526;-81
2023/08/04 05:39:08;;;;;;;5.13;3.97;;;19.70;99.90;;;;;;5034959;28;21012;-82
2023/08/04 05:41:35;;;;;;;5.37;4.30;;;19.70;99.90;;;;;;5035358;28;20740;-81
2023/08/04 05:44:02;;;;;;;6.33;4.70;;;19.70;99.90;;;;;;5034733;28;20472;-81
2023/08/04 05:46:32;;;;;;;4.20;3.80;;;19.70;99.90;;;;;;5035981;28;20815;-81
2023/08/04 05:49:00;;;;;;;7.20;5.10;;;19.80;99.90;;;;;;5035187;28;20479;-81
2023/08/04 05:51:28;;;;;;;7.00;4.57;;;19.80;99.90;;;;;;5035436;28;20464;-81
2023/08/04 05:53:55;;;;;;;5.97;4.57;;;19.80;99.90;;;;;;5035609;28;20522;-81
2023/08/04 05:56:22;;;;;;;5.00;4.60;;;19.80;99.90;;;;;;5038014;28;20488;-82
2023/08/04 05:58:49;;;;;;;7.10;4.50;;;19.80;99.90;;;;;;5036666;28;20468;-81
2023/08/04 06:01:16;;;;;;;7.00;4.90;;;19.80;99.90;;;;;;5039398;28;20826;-81
2023/08/04 06:03:43;;;;;;;4.97;4.00;;;19.80;99.90;;;;;;5041469;28;20487;-82
2023/08/04 06:06:10;;;;;;;4.27;3.87;;;19.80;99.90;;;;;;5029278;28;20474;-82
2023/08/04 06:08:39;;;;;;;4.70;3.67;;;19.80;99.90;;;;;;5035067;28;20467;-81
2023/08/04 06:11:05;;;;;;;6.07;4.03;;;19.90;99.90;;;;;;5034854;28;20543;-81
2023/08/04 06:13:34;;;;;;;9.50;4.60;;;19.90;99.90;;;;;;5042526;28;20460;-81
2023/08/04 06:16:01;;;;;;;5.83;4.10;;;20.00;99.90;;;;;;5033821;28;20507;-82
2023/08/04 06:18:28;;;;;;;5.23;3.87;;;20.00;99.90;;;;;;5035286;28;20468;-81
2023/08/04 06:20:58;;;;;;;5.80;4.20;;;20.10;99.90;;;;;;5035216;28;20859;-81
2023/08/04 06:23:37;;;;;;;6.50;3.83;;;20.10;99.90;;;;;;5034405;28;20492;-82
2023/08/04 06:26:06;;;;;;;7.27;4.13;;;20.10;99.90;;;;;;5035014;28;20507;-81
2023/08/04 06:28:32;;;;;;;4.30;3.83;;;20.10;99.90;;;;;;5036137;28;20950;-80
2023/08/04 06:31:01;;;;;;;5.30;3.47;;;20.20;99.90;;;;;;5038225;28;20874;-80
2023/08/04 06:33:28;;;;;;;4.70;3.80;;;20.20;99.90;;;;;;5038142;28;20479;-81
2023/08/04 06:35:55;;;;;;;9.60;5.60;;;20.20;99.90;;;;;;5035591;28;20555;-81
2023/08/04 06:38:22;;;;;;;5.23;4.83;;;20.20;99.90;;;;;;5034891;28;20547;-81
2023/08/04 06:40:49;;;;;;;6.37;4.03;;;20.20;99.90;;;;;;5035055;28;20464;-81
2023/08/04 06:43:17;;;;;;;8.53;4.40;;;20.20;99.90;;;;;;5033546;28;20534;-81
2023/08/04 06:45:44;;;;;;;6.07;3.93;;;20.30;99.90;;;;;;5034987;28;20488;-81
2023/08/04 06:48:11;;;;;;;5.30;3.77;;;20.30;99.90;;;;;;5034240;28;20514;-81
2023/08/04 06:50:38;;;;;;;5.93;3.60;;;20.30;99.90;;;;;;5035482;28;20467;-81
2023/08/04 06:53:06;;;;;;;5.83;4.23;;;20.30;99.90;;;;;;5050708;28;20487;-81
2023/08/04 06:55:33;;;;;;;9.43;5.13;;;20.40;99.90;;;;;;5042056;28;20466;-81
2023/08/04 06:58:00;;;;;;;7.57;4.43;;;20.40;99.90;;;;;;5034756;28;20479;-81
2023/08/04 07:00:29;;;;;;;5.30;4.73;;;20.40;99.90;;;;;;5033988;28;20472;-81
2023/08/04 07:02:55;;;;;;;8.70;3.80;;;20.40;99.90;;;;;;5033593;28;20500;-81
2023/08/04 07:05:22;;;;;;;4.07;3.50;;;20.40;99.90;;;;;;5023527;28;20503;-81
2023/08/04 07:07:54;;;;;;;4.33;3.80;;;20.50;99.90;;;;;;5033808;28;20499;-82
2023/08/04 07:10:24;;;;;;;5.33;3.50;;;20.60;99.90;;;;;;5033542;28;20859;-81
2023/08/04 07:12:50;;;;;;;3.43;3.13;;;20.60;99.90;;;;;;5033516;28;20543;-82
2023/08/04 07:15:17;;;;;;;4.13;3.80;;;20.70;99.90;;;;;;5032807;28;20559;-81
2023/08/04 07:17:45;;;;;;;5.77;4.07;;;20.80;99.90;;;;;;5033774;28;20554;-81
2023/08/04 07:20:13;;;;;;;4.60;3.43;;;20.80;99.90;;;;;;5033317;28;20492;-80
2023/08/04 07:22:39;;;;;;;4.97;3.00;;;20.90;99.90;;;;;;5033012;28;20537;-80
2023/08/04 07:25:21;;;;;;;5.17;3.57;;;20.90;99.90;;;;;;5033394;28;20558;-81
2023/08/04 07:27:48;;;;;;;3.30;3.00;;;20.90;99.90;;;;;;5033157;28;20456;-81
2023/08/04 07:30:16;;;;;;;5.40;3.90;;;20.90;99.90;;;;;;5033386;28;20953;-82
2023/08/04 07:32:49;;;;;;;6.43;4.00;;;20.90;99.90;;;;;;5032858;28;20483;-81
2023/08/04 07:35:20;;;;;;;4.03;3.30;;;20.90;99.90;;;;;;5033237;28;20551;-81
2023/08/04 07:37:49;;;;;;;4.03;2.77;;;21.00;99.90;;;;;;5032010;28;20832;-81
2023/08/04 07:40:20;;;;;;;6.23;3.20;;;21.10;99.90;;;;;;5033472;28;20468;-82
2023/08/04 07:42:49;;;;;;;5.23;3.37;;;21.30;99.90;;;;;;5032971;28;20460;-82
2023/08/04 07:45:20;;;;;;;3.27;2.60;;;21.30;99.90;;;;;;5032959;28;20468;-81
2023/08/04 07:47:50;;;;;;;3.37;3.00;;;21.40;99.90;;;;;;5032959;28;20510;-83
2023/08/04 07:50:18;;;;;;;3.17;2.70;;;21.50;99.90;;;;;;5033346;28;20845;-81
2023/08/04 07:52:46;;;;;;;5.97;3.37;;;21.60;99.90;;;;;;5024738;28;20901;-82
2023/08/04 07:55:13;;;;;;;5.57;2.67;;;21.70;99.90;;;;;;5033262;28;20476;-81
2023/08/04 07:57:41;;;;;;;3.87;3.57;;;21.80;99.90;;;;;;5032873;28;20543;-82
2023/08/04 08:00:10;;;;;;;3.23;3.03;;;21.80;99.90;;;;;;5033242;28;20460;-81
2023/08/04 08:02:36;;;;;;;3.40;2.57;;;21.80;99.90;;;;;;5032301;28;20468;-82
2023/08/04 08:05:04;;;;;;;5.13;3.30;;;21.80;99.90;;;;;;5032460;28;20468;-82
2023/08/04 08:07:32;;;;;;;3.73;3.13;;;21.90;99.90;;;;;;5032164;28;20468;-82
2023/08/04 08:09:59;;;;;;;6.83;2.70;;;21.90;99.90;;;;;;5032550;28;20509;-82
2023/08/04 08:12:26;;;;;;;3.43;2.57;;;21.90;99.90;;;;;;5031845;28;20551;-81
2023/08/04 08:14:53;;;;;;;4.37;3.50;;;21.90;99.90;;;;;;5030974;28;20889;-82
2023/08/04 08:17:24;;;;;;;5.07;2.90;;;22.00;99.90;;;;;;5031931;28;20507;-82
2023/08/04 08:19:56;;;;;;;6.03;3.03;;;21.90;99.90;;;;;;5031908;28;20472;-81
2023/08/04 08:22:23;;;;;;;5.77;3.60;;;22.00;99.90;;;;;;5035677;28;20472;-81
2023/08/04 08:24:55;;;;;;;4.50;2.93;;;22.00;99.90;;;;;;5035337;28;20483;-81
2023/08/04 08:27:22;;;;;;;3.30;3.00;;;22.00;99.90;;;;;;5036026;28;20530;-81
2023/08/04 08:29:51;;;;;;;4.77;2.80;;;22.10;99.90;;;;;;5035761;28;20551;-80
2023/08/04 08:32:17;;;;;;;3.20;2.90;;;22.00;99.90;;;;;;5036057;28;20530;-81
2023/08/04 08:34:45;;;;;;;3.63;2.87;;;22.00;99.90;;;;;;5034916;28;20547;-81
2023/08/04 08:37:12;;;;;;;5.93;3.33;;;22.00;99.90;;;;;;5033676;28;20464;-81
2023/08/04 08:39:39;;;;;;;3.30;3.00;;;22.00;99.90;;;;;;5035720;28;20527;-81
2023/08/04 08:42:08;;;;;;;4.20;3.23;;;22.00;99.90;;;;;;5035784;28;20504;-81
2023/08/04 08:44:35;;;;;;;4.90;3.40;;;22.00;99.90;;;;;;5034940;28;20472;-81
2023/08/04 08:47:04;;;;;;;5.20;3.10;;;22.10;99.90;;;;;;5024815;28;20500;-80
2023/08/04 08:49:38;;;;;;;5.07;3.13;;;22.10;99.90;;;;;;5035133;28;20500;-81
2023/08/04 08:52:09;;;;;;;3.23;2.93;;;22.20;99.90;;;;;;5034823;28;20476;-81
2023/08/04 08:54:37;;;;;;;4.00;3.07;;;22.30;99.90;;;;;;5035292;28;20468;-82
2023/08/04 08:57:08;;;;;;;3.07;2.53;;;22.30;99.90;;;;;;5034907;28;20471;-82
2023/08/04 08:59:39;;;;;;;6.57;3.80;;;22.30;99.90;;;;;;5035447;28;20475;-81
2023/08/04 09:02:07;;;;;;;4.40;3.70;;;22.40;99.90;;;;;;5035269;28;20464;-81
2023/08/04 09:04:36;;;;;;;2.93;2.73;;;22.40;99.90;;;;;;5034642;28;20472;-82
2023/08/04 09:07:03;;;;;;;3.20;2.60;;;22.40;99.90;;;;;;5025477;28;20966;-82
2023/08/04 09:09:30;;;;;;;3.40;3.10;;;22.40;99.90;;;;;;5035042;28;20468;-81
2023/08/04 09:11:57;;;;;;;2.83;2.67;;;22.50;99.90;;;;;;5034840;28;20492;-81
2023/08/04 09:14:24;;;;;;;4.80;2.57;;;22.50;99.90;;;;;;5034868;28;20523;-81
2023/08/04 09:16:55;;;;;;;3.57;3.27;;;22.50;99.90;;;;;;5034108;28;20525;-82
2023/08/04 09:19:22;;;;;;;2.77;2.57;;;22.60;99.90;;;;;;5034925;28;20492;-82
2023/08/04 09:21:58;;;;;;;4.80;3.07;;;22.70;99.90;;;;;;5034585;28;21017;-81
2023/08/04 09:24:25;;;;;;;4.73;2.93;;;22.70;99.90;;;;;;5034501;28;20468;-81
2023/08/04 09:26:52;;;;;;;3.70;2.50;;;22.70;99.90;;;;;;5033637;28;20897;-82
2023/08/04 09:29:26;;;;;;;3.80;3.50;;;22.80;99.90;;;;;;5032943;28;20823;-82
2023/08/04 09:31:57;;;;;;;3.30;2.57;;;22.80;99.90;;;;;;5033945;28;20472;-82
2023/08/04 09:34:24;;;;;;;4.63;2.37;;;22.80;99.90;;;;;;5034465;28;20575;-81
2023/08/04 09:36:55;;;;;;;3.70;2.93;;;22.90;99.90;;;;;;5033876;28;20464;-81
2023/08/04 09:39:22;;;;;;;4.80;3.17;;;22.90;99.90;;;;;;5034486;28;21029;-82
2023/08/04 09:41:49;;;;;;;3.07;2.57;;;22.90;99.90;;;;;;5033688;28;20492;-81
2023/08/04 09:44:18;;;;;;;2.50;2.07;;;23.00;99.90;;;;;;5034352;28;20751;-81
2023/08/04 09:46:50;;;;;;;5.70;2.90;;;23.10;99.90;;;;;;5034421;28;20468;-82
2023/08/04 09:49:20;;;;;;;3.20;2.90;;;23.20;99.90;;;;;;5033310;28;20541;-82
2023/08/04 09:51:50;;;;;;;6.40;3.33;;;23.30;99.90;;;;;;5033656;28;20476;-82
2023/08/04 09:54:17;;;;;;;3.10;2.90;;;23.30;99.90;;;;;;5033753;28;20457;-81
2023/08/04 09:56:45;;;;;;;4.27;2.70;;;23.30;99.90;;;;;;5034374;28;20731;-81
2023/08/04 09:59:13;;;;;;;2.87;2.60;;;23.40;99.90;;;;;;5033810;28;20887;-81
2023/08/04 10:01:41;;;;;;;5.00;2.93;;;23.40;99.90;;;;;;5033747;28;21057;-82
2023/08/04 10:04:09;;;;;;;2.60;2.40;;;23.40;99.90;;;;;;5032940;28;20484;-82
2023/08/04 10:06:39;;;;;;;3.10;2.77;;;23.40;99.90;;;;;;5034336;28;20537;-82
2023/08/04 10:09:07;;;;;;;3.23;2.83;;;23.40;99.90;;;;;;5033759;28;20476;-81
2023/08/04 10:11:36;;;;;;;4.73;3.03;;;23.40;99.90;;;;;;5033309;28;20500;-82
2023/08/04 10:14:05;;;;;;;3.57;2.60;;;23.40;99.90;;;;;;5033406;28;20476;-82
2023/08/04 10:16:34;;;;;;;4.40;2.90;;;23.30;99.90;;;;;;5033928;28;20471;-82
2023/08/04 10:19:13;;;;;;;4.30;3.10;;;23.30;99.90;;;;;;5033244;28;20478;-82
2023/08/04 10:21:42;;;;;;;4.03;3.70;;;23.20;99.90;;;;;;5033371;28;20558;-82
2023/08/04 10:24:11;;;;;;;5.67;3.53;;;23.10;99.90;;;;;;5032915;28;20468;-81
2023/08/04 10:26:49;;;;;;;2.73;2.53;;;23.10;99.90;;;;;;5033621;28;20466;-82
2023/08/04 10:29:20;;;;;;;3.03;2.83;;;23.00;99.90;;;;;;5033520;28;20985;-82
2023/08/04 10:31:52;;;;;;;4.10;2.80;;;22.90;99.90;;;;;;5034337;28;20530;-82
2023/08/04 10:34:25;;;;;;;3.70;3.10;;;22.80;99.90;;;;;;5032855;28;20548;-82
2023/08/04 10:37:09;;;;;;;4.40;2.97;;;22.70;99.90;;;;;;5033542;28;20472;-81
2023/08/04 10:39:42;;;;;;;3.47;2.87;;;22.70;99.90;;;;;;5034789;28;20483;-81
2023/08/04 10:42:22;;;;;;;3.17;2.90;;;22.70;99.90;;;;;;5024286;28;20490;-81
2023/08/04 10:44:55;;;;;;;3.20;2.90;;;22.60;99.90;;;;;;5032114;28;20969;-81
2023/08/04 10:47:32;;;;;;;2.97;2.67;;;22.60;99.90;;;;;;5033787;28;21019;-81
2023/08/04 10:50:00;;;;;;;5.47;3.50;;;22.60;99.90;;;;;;5032974;28;20468;-82
2023/08/04 10:52:28;;;;;;;2.83;2.63;;;22.70;99.90;;;;;;5033225;28;20498;-82
2023/08/04 10:54:57;;;;;;;5.00;3.23;;;22.70;99.90;;;;;;5032895;28;20476;-82
2023/08/04 10:57:30;;;;;;;4.00;2.90;;;22.80;99.90;;;;;;5033696;28;20526;-82
2023/08/04 10:59:57;;;;;;;6.50;3.30;;;22.90;99.90;;;;;;5033137;28;20472;-82
2023/08/04 11:02:27;;;;;;;3.30;2.50;;;22.90;99.90;;;;;;5033556;28;20862;-81
2023/08/04 11:04:56;;;;;;;3.50;3.20;;;22.90;99.90;;;;;;5032959;28;20531;-82
2023/08/04 11:07:28;;;;;;;6.63;3.43;;;23.00;99.90;;;;;;5033366;28;20507;-81
2023/08/04 11:09:56;;;;;;;6.43;3.30;;;23.10;99.90;;;;;;5033157;28;20551;-82
2023/08/04 11:12:24;;;;;;;2.80;2.57;;;23.10;99.90;;;;;;5034292;28;20463;-82
2023/08/04 11:14:55;;;;;;;3.23;2.50;;;23.20;99.90;;;;;;5032904;28;20473;-82
2023/08/04 11:17:25;;;;;;;8.80;3.20;;;23.30;99.90;;;;;;5033149;28;20457;-82
2023/08/04 11:19:54;;;;;;;3.67;2.33;;;23.40;99.90;;;;;;5032575;28;20476;-82
2023/08/04 11:22:23;;;;;;;3.00;2.47;;;23.50;99.90;;;;;;5034552;28;20552;-82
2023/08/04 11:24:54;;;;;;;3.67;2.87;;;23.50;99.90;;;;;;5035018;28;20484;-81
2023/08/04 11:27:22;;;;;;;2.83;2.50;;;23.50;99.90;;;;;;5033486;28;20460;-82
2023/08/04 11:29:53;;;;;;;4.00;3.00;;;23.60;99.90;;;;;;5033043;28;20521;-81
2023/08/04 11:32:22;;;;;;;3.33;2.13;;;23.60;99.90;;;;;;5034047;28;20468;-82
2023/08/04 11:34:53;;;;;;;2.60;2.40;;;23.60;99.90;;;;;;5033772;28;20499;-82
2023/08/04 11:37:21;;;;;;;2.57;2.37;;;23.60;99.90;;;;;;5032969;28;20463;-82
2023/08/04 11:39:48;;;;;;;3.53;2.73;;;23.60;99.90;;;;;;5033977;28;20495;-81
2023/08/04 11:42:16;;;;;;;4.40;2.57;;;23.70;99.90;;;;;;5033443;28;20848;-82
2023/08/04 11:44:45;;;;;;;2.77;2.47;;;23.70;99.90;;;;;;5034446;28;20490;-82
2023/08/04 11:47:15;;;;;;;3.63;2.03;;;23.70;99.90;;;;;;5034499;28;20503;-82
2023/08/04 11:49:42;;;;;;;2.50;2.30;;;23.70;99.90;;;;;;5033472;28;20478;-82
2023/08/04 11:52:10;;;;;;;4.70;2.27;;;23.70;99.90;;;;;;5032412;28;20469;-82
2023/08/04 11:54:37;;;;;;;3.10;2.13;;;23.70;99.90;;;;;;5034252;28;20476;-82
2023/08/04 11:57:05;;;;;;;2.80;2.60;;;23.70;99.90;;;;;;5036685;28;20977;-82
2023/08/04 11:59:32;;;;;;;3.73;2.20;;;23.80;99.90;;;;;;5036268;28;20509;-83
2023/08/04 12:02:08;;;;;;;3.00;2.40;;;23.80;99.90;;;;;;5036453;28;20496;-82
2023/08/04 12:04:35;;;;;;;3.53;2.50;;;23.80;99.90;;;;;;5036427;28;20482;-82
2023/08/04 12:07:02;;;;;;;4.37;2.60;;;23.80;99.90;;;;;;5036741;28;20481;-82
2023/08/04 12:09:30;;;;;;;2.50;2.30;;;23.90;99.90;;;;;;5034867;28;20631;-82
2023/08/04 12:11:57;;;;;;;3.60;2.20;;;23.90;99.90;;;;;;5036418;28;20813;-82
2023/08/04 12:14:25;;;;;;;3.13;2.80;;;23.90;99.90;;;;;;5036315;28;20487;-82
2023/08/04 12:16:53;;;;;;;2.70;2.50;;;23.90;99.90;;;;;;5037896;28;20464;-82
2023/08/04 12:19:23;;;;;;;3.23;2.90;;;23.90;99.90;;;;;;5026472;28;20482;-82
2023/08/04 12:22:03;;;;;;;3.27;2.73;;;23.80;99.90;;;;;;5036605;28;20467;-82
2023/08/04 12:24:33;;;;;;;3.03;2.73;;;23.80;99.90;;;;;;5035823;28;20562;-82
2023/08/04 12:26:59;;;;;;;3.00;2.80;;;23.70;99.90;;;;;;5036928;28;20859;-82
2023/08/04 12:29:26;;;;;;;2.73;2.53;;;23.60;99.90;;;;;;5036001;28;20495;-82
2023/08/04 12:31:53;;;;;;;6.20;2.70;;;23.60;99.90;;;;;;5036738;28;20538;-82
2023/08/04 12:34:22;;;;;;;3.30;2.70;;;23.60;99.90;;;;;;5025210;28;20567;-82
2023/08/04 12:36:49;;;;;;;5.87;3.47;;;23.60;99.90;;;;;;5035304;28;20475;-82
2023/08/04 12:39:16;;;;;;;3.03;2.50;;;23.60;99.90;;;;;;5036093;28;20537;-82
2023/08/04 12:41:46;;;;;;;5.03;3.17;;;23.70;99.90;;;;;;5034807;28;20456;-82
2023/08/04 12:44:16;;;;;;;2.83;2.40;;;23.70;99.90;;;;;;5035751;28;20633;-82
2023/08/04 12:46:43;;;;;;;3.93;2.90;;;23.70;99.90;;;;;;5025790;28;20551;-82
2023/08/04 12:49:10;;;;;;;2.83;2.63;;;23.70;99.90;;;;;;5035143;28;20558;-82
2023/08/04 12:51:39;;;;;;;3.57;3.27;;;23.70;99.90;;;;;;5035532;28;21040;-82
2023/08/04 12:54:08;;;;;;;3.00;2.80;;;23.70;99.90;;;;;;5036034;28;20550;-82
2023/08/04 12:56:39;;;;;;;3.63;3.10;;;23.70;99.90;;;;;;5024707;28;20468;-82
2023/08/04 12:59:06;;;;;;;3.20;2.90;;;23.70;99.90;;;;;;5036369;28;20464;-82
2023/08/04 13:01:33;;;;;;;4.13;3.20;;;23.80;99.90;;;;;;5035161;28;20472;-82
2023/08/04 13:04:00;;;;;;;2.60;2.40;;;23.80;99.90;;;;;;5037184;28;20480;-82